createdAt,value
2018-08-07T00:00:47.009Z,32.7
2018-08-07T00:01:50.293Z,32.7
2018-08-07T00:02:49.589Z,32.7
2018-08-07T00:03:56.016Z,32.7
2018-08-07T00:04:55.896Z,32.7
2018-08-07T00:05:59.870Z,32.8
2018-08-07T00:07:01.014Z,32.7
2018-08-07T00:08:03.018Z,32.7
2018-08-07T00:09:01.023Z,32.7
2018-08-07T00:09:55.645Z,32.7
2018-08-07T00:11:11.764Z,32.7
2018-08-07T00:12:11.986Z,32.6
2018-08-07T00:13:10.687Z,32.7
2018-08-07T00:14:08.312Z,32.7
2018-08-07T00:15:03.100Z,32.7
2018-08-07T00:16:00.872Z,32.7
2018-08-07T00:17:02.024Z,32.6
2018-08-07T00:18:07.502Z,32.6
2018-08-07T00:19:15.299Z,32.6
2018-08-07T00:20:13.532Z,32.6
2018-08-07T00:21:16.204Z,32.6
2018-08-07T00:22:27.705Z,32.6
2018-08-07T00:23:19.670Z,32.6
2018-08-07T00:24:17.813Z,32.6
2018-08-07T00:25:19.645Z,32.6
2018-08-07T00:26:18.095Z,32.6
2018-08-07T00:27:18.490Z,32.6
2018-08-07T00:28:19.884Z,32.5
2018-08-07T00:29:21.598Z,32.5
2018-08-07T00:30:24.728Z,32.5
2018-08-07T00:31:23.287Z,32.6
2018-08-07T00:32:21.722Z,32.5
2018-08-07T00:33:22.176Z,32.5
2018-08-07T00:34:20.932Z,32.5
2018-08-07T00:35:28.963Z,32.5
2018-08-07T00:36:26.965Z,32.5
2018-08-07T00:37:25.066Z,32.5
2018-08-07T00:38:23.912Z,32.5
2018-08-07T00:39:35.965Z,32.5
2018-08-07T00:40:29.617Z,32.5
2018-08-07T00:41:30.862Z,32.5
2018-08-07T00:42:32.101Z,32.5
2018-08-07T00:43:31.259Z,32.5
2018-08-07T00:44:32.240Z,32.5
2018-08-07T00:45:35.328Z,32.5
2018-08-07T00:46:37.162Z,32.6
2018-08-07T00:47:35.218Z,32.7
2018-08-07T00:48:40.997Z,32.7
2018-08-07T00:49:52.954Z,32.7
2018-08-07T00:50:45.454Z,32.8
2018-08-07T00:51:48.782Z,32.8
2018-08-07T00:52:43.280Z,32.9
2018-08-07T00:53:41.997Z,32.9
2018-08-07T00:54:44.771Z,33
2018-08-07T00:55:40.926Z,33
2018-08-07T00:56:42.158Z,33
2018-08-07T00:57:43.462Z,33.1
2018-08-07T00:58:45.933Z,33.1
2018-08-07T00:59:58.329Z,33.1
2018-08-07T01:00:54.982Z,33.1
2018-08-07T01:01:59.135Z,33.1
2018-08-07T01:02:56.883Z,33.1
2018-08-07T01:03:54.801Z,33.1
2018-08-07T01:04:56.797Z,33.1
2018-08-07T01:05:57.182Z,33.1
2018-08-07T01:06:55.711Z,33.1
2018-08-07T01:07:51.348Z,33.1
2018-08-07T01:08:58.903Z,33.1
2018-08-07T01:09:59.868Z,33.1
2018-08-07T01:10:58.331Z,33.1
2018-08-07T01:11:56.697Z,33.2
2018-08-07T01:12:55.387Z,33.2
2018-08-07T01:13:50.527Z,33.2
2018-08-07T01:14:48.811Z,33.2
2018-08-07T01:15:56.462Z,33.3
2018-08-07T01:16:59.033Z,33.3
2018-08-07T01:18:10.568Z,33.4
2018-08-07T01:19:06.269Z,33.4
2018-08-07T01:20:06.680Z,33.4
2018-08-07T01:21:03.633Z,33.5
2018-08-07T01:22:03.369Z,33.5
2018-08-07T01:23:02.444Z,33.5
2018-08-07T01:24:02.693Z,33.5
2018-08-07T01:25:00.395Z,33.5
2018-08-07T01:25:59.663Z,33.6
2018-08-07T01:27:02.262Z,33.6
2018-08-07T01:27:59.888Z,33.6
2018-08-07T01:28:59.582Z,33.6
2018-08-07T01:29:54.277Z,33.5
2018-08-07T01:30:56.649Z,33.6
2018-08-07T01:32:10.968Z,33.6
2018-08-07T01:33:10.629Z,33.6
2018-08-07T01:34:12.798Z,33.6
2018-08-07T01:35:17.010Z,33.6
2018-08-07T01:36:16.180Z,33.6
2018-08-07T01:37:14.215Z,33.6
2018-08-07T01:38:13.056Z,33.6
2018-08-07T01:39:10.222Z,33.6
2018-08-07T01:40:11.723Z,33.7
2018-08-07T01:41:09.279Z,33.6
2018-08-07T01:42:09.760Z,33.6
2018-08-07T01:43:07.282Z,33.7
2018-08-07T01:44:01.715Z,33.7
2018-08-07T01:45:02.707Z,33.7
2018-08-07T01:46:06.368Z,33.7
2018-08-07T01:47:05.806Z,33.7
2018-08-07T01:48:09.688Z,33.7
2018-08-07T01:49:07.565Z,33.7
2018-08-07T01:50:02.798Z,33.7
2018-08-07T01:51:26.056Z,33.7
2018-08-07T01:52:15.626Z,33.8
2018-08-07T01:53:13.425Z,33.9
2018-08-07T01:54:17.050Z,33.9
2018-08-07T01:55:17.803Z,34
2018-08-07T01:56:21.912Z,34
2018-08-07T01:57:18.115Z,34
2018-08-07T01:58:19.975Z,34.1
2018-08-07T01:59:18.135Z,34.2
2018-08-07T02:00:16.351Z,34.2
2018-08-07T02:01:14.080Z,34.3
2018-08-07T02:02:17.731Z,34.4
2018-08-07T02:03:29.439Z,34.4
2018-08-07T02:04:25.810Z,34.4
2018-08-07T02:05:24.366Z,34.5
2018-08-07T02:06:36.269Z,34.5
2018-08-07T02:07:47.870Z,34.5
2018-08-07T02:08:47.642Z,34.6
2018-08-07T02:09:45.304Z,34.7
2018-08-07T02:10:44.915Z,34.7
2018-08-07T02:11:45.648Z,34.7
2018-08-07T02:12:43.783Z,34.7
2018-08-07T02:13:43.584Z,34.8
2018-08-07T02:14:42.408Z,34.8
2018-08-07T02:15:54.067Z,34.8
2018-08-07T02:16:52.131Z,34.8
2018-08-07T02:17:57.180Z,34.8
2018-08-07T02:18:57.441Z,34.8
2018-08-07T02:19:57.861Z,34.9
2018-08-07T02:20:59.744Z,34.9
2018-08-07T02:21:54.284Z,35
2018-08-07T02:22:51.979Z,35
2018-08-07T02:23:52.529Z,35
2018-08-07T02:24:52.859Z,35
2018-08-07T02:25:51.307Z,35.1
2018-08-07T02:26:55.532Z,35.1
2018-08-07T02:27:55.920Z,35.1
2018-08-07T02:29:00.866Z,35.2
2018-08-07T02:30:01.253Z,35
2018-08-07T02:30:59.383Z,35.1
2018-08-07T02:31:54.151Z,35.2
2018-08-07T02:32:52.530Z,34.7
2018-08-07T02:34:04.065Z,34.7
2018-08-07T02:35:05.787Z,34.7
2018-08-07T02:36:05.823Z,34.7
2018-08-07T02:37:04.279Z,34.7
2018-08-07T02:38:06.251Z,34.7
2018-08-07T02:39:01.019Z,34.7
2018-08-07T02:40:03.575Z,34.7
2018-08-07T02:41:02.428Z,34.7
2018-08-07T02:42:02.833Z,34.7
2018-08-07T02:43:07.365Z,34.7
2018-08-07T02:44:08.788Z,34.8
2018-08-07T02:45:01.118Z,34.8
2018-08-07T02:46:04.160Z,34.8
2018-08-07T02:47:06.545Z,34.7
2018-08-07T02:48:19.651Z,34.7
2018-08-07T02:49:14.683Z,34.7
2018-08-07T02:50:12.438Z,34.7
2018-08-07T02:51:14.222Z,34.7
2018-08-07T02:52:19.851Z,34.8
2018-08-07T02:53:19.376Z,34.7
2018-08-07T02:54:23.410Z,34.8
2018-08-07T02:55:32.375Z,34.8
2018-08-07T02:56:32.091Z,34.8
2018-08-07T02:57:29.989Z,34.8
2018-08-07T02:58:27.246Z,34.8
2018-08-07T02:59:24.987Z,34.8
2018-08-07T03:00:22.918Z,35
2018-08-07T03:01:28.439Z,34.8
2018-08-07T03:02:26.610Z,34.8
2018-08-07T03:03:24.781Z,34.8
2018-08-07T03:04:38.768Z,34.9
2018-08-07T03:05:34.126Z,35
2018-08-07T03:06:31.783Z,35
2018-08-07T03:07:27.421Z,35
2018-08-07T03:08:29.612Z,34.8
2018-08-07T03:09:34.026Z,34.9
2018-08-07T03:10:31.649Z,34.8
2018-08-07T03:11:40.722Z,34.8
2018-08-07T03:12:42.201Z,34.8
2018-08-07T03:13:43.767Z,34.8
2018-08-07T03:14:39.008Z,34.8
2018-08-07T03:15:53.384Z,34.8
2018-08-07T03:16:47.511Z,34.8
2018-08-07T03:17:58.580Z,34.8
2018-08-07T03:18:56.936Z,34.8
2018-08-07T03:20:01.205Z,34.9
2018-08-07T03:20:56.130Z,34.9
2018-08-07T03:21:57.285Z,34.9
2018-08-07T03:22:56.694Z,35
2018-08-07T03:23:54.826Z,35.1
2018-08-07T03:24:52.552Z,35.1
2018-08-07T03:25:54.632Z,35.2
2018-08-07T03:26:53.590Z,35.2
2018-08-07T03:27:51.466Z,35.2
2018-08-07T03:28:52.797Z,35.2
2018-08-07T03:29:53.303Z,35.3
2018-08-07T03:31:08.814Z,35.3
2018-08-07T03:32:05.120Z,35.3
2018-08-07T03:33:04.388Z,35.4
2018-08-07T03:34:02.292Z,35.4
2018-08-07T03:35:00.340Z,35.4
2018-08-07T03:35:55.038Z,35.5
2018-08-07T03:36:58.565Z,35.5
2018-08-07T03:37:56.444Z,35.4
2018-08-07T03:38:55.287Z,35.5
2018-08-07T03:39:57.291Z,35.5
2018-08-07T03:41:00.522Z,35.5
2018-08-07T03:42:13.914Z,35.6
2018-08-07T03:43:09.374Z,35.5
2018-08-07T03:44:09.811Z,35.5
2018-08-07T03:45:11.845Z,35.6
2018-08-07T03:46:14.132Z,35.5
2018-08-07T03:47:15.848Z,35.5
2018-08-07T03:48:16.164Z,35.5
2018-08-07T03:49:15.297Z,35.6
2018-08-07T03:50:10.159Z,35.6
2018-08-07T03:51:08.633Z,35.6
2018-08-07T03:52:20.370Z,35.5
2018-08-07T03:53:16.424Z,35.6
2018-08-07T03:54:19.649Z,35.6
2018-08-07T03:55:18.385Z,35.6
2018-08-07T03:56:21.998Z,35.6
2018-08-07T03:57:20.462Z,35.6
2018-08-07T03:58:20.428Z,35.6
2018-08-07T03:59:22.226Z,35.6
2018-08-07T04:00:24.655Z,35.7
2018-08-07T04:01:23.198Z,35.6
2018-08-07T04:02:24.265Z,35.6
2018-08-07T04:03:21.471Z,35.6
2018-08-07T04:04:22.938Z,35.6
2018-08-07T04:05:17.488Z,35.6
2018-08-07T04:06:16.546Z,35.6
2018-08-07T04:07:16.254Z,35.6
2018-08-07T04:08:28.398Z,35.6
2018-08-07T04:09:24.109Z,35.6
2018-08-07T04:10:19.699Z,35.7
2018-08-07T04:11:25.598Z,35.7
2018-08-07T04:12:23.282Z,35.6
2018-08-07T04:13:26.798Z,35.6
2018-08-07T04:14:25.335Z,35.6
2018-08-07T04:15:30.150Z,35.7
2018-08-07T04:16:27.949Z,35.6
2018-08-07T04:17:31.746Z,35.6
2018-08-07T04:18:43.887Z,35.5
2018-08-07T04:19:42.143Z,35.5
2018-08-07T04:20:41.201Z,35.5
2018-08-07T04:21:43.266Z,35.5
2018-08-07T04:22:38.411Z,35.5
2018-08-07T04:23:40.032Z,35.5
2018-08-07T04:24:42.183Z,35.5
2018-08-07T04:25:39.926Z,35.4
2018-08-07T04:26:40.704Z,35.4
2018-08-07T04:27:45.689Z,35.5
2018-08-07T04:28:47.253Z,35.4
2018-08-07T04:29:48.619Z,35.4
2018-08-07T04:30:45.059Z,35.5
2018-08-07T04:31:45.436Z,35.5
2018-08-07T04:32:58.267Z,35.5
2018-08-07T04:33:50.930Z,35.6
2018-08-07T04:35:01.866Z,35.5
2018-08-07T04:36:02.010Z,35.5
2018-08-07T04:37:01.714Z,35.5
2018-08-07T04:38:00.760Z,35.5
2018-08-07T04:38:58.592Z,35.5
2018-08-07T04:39:56.462Z,35.6
2018-08-07T04:41:01.630Z,35.6
2018-08-07T04:41:59.082Z,35.6
2018-08-07T04:42:56.926Z,35.6
2018-08-07T04:44:01.811Z,35.6
2018-08-07T04:45:02.403Z,35.7
2018-08-07T04:45:59.593Z,35.7
2018-08-07T04:47:04.989Z,35.8
2018-08-07T04:48:01.400Z,35.8
2018-08-07T04:49:04.488Z,35.8
2018-08-07T04:50:05.841Z,35.9
2018-08-07T04:51:13.090Z,35.8
2018-08-07T04:52:24.980Z,35.9
2018-08-07T04:53:20.223Z,35.9
2018-08-07T04:54:18.144Z,35.9
2018-08-07T04:55:16.141Z,35.9
2018-08-07T04:56:20.603Z,35.9
2018-08-07T04:57:25.512Z,35.9
2018-08-07T04:58:23.218Z,35.9
2018-08-07T04:59:18.610Z,35.9
2018-08-07T05:00:25.050Z,36.1
2018-08-07T05:01:23.732Z,36
2018-08-07T05:02:20.357Z,36
2018-08-07T05:03:19.047Z,36
2018-08-07T05:04:14.538Z,36
2018-08-07T05:05:31.627Z,36
2018-08-07T05:06:26.699Z,36.1
2018-08-07T05:07:25.918Z,36.1
2018-08-07T05:08:30.555Z,36.1
2018-08-07T05:09:29.611Z,36.1
2018-08-07T05:10:30.122Z,36.2
2018-08-07T05:11:27.918Z,36.3
2018-08-07T05:12:31.639Z,36.3
2018-08-07T05:13:31.836Z,36.3
2018-08-07T05:14:30.311Z,36.4
2018-08-07T05:15:32.541Z,36.2
2018-08-07T05:16:38.753Z,36.5
2018-08-07T05:17:54.538Z,36.5
2018-08-07T05:18:49.584Z,36.5
2018-08-07T05:19:44.786Z,36.6
2018-08-07T05:20:50.006Z,36.8
2018-08-07T05:21:44.776Z,37.1
2018-08-07T05:22:47.289Z,37.1
2018-08-07T05:23:43.375Z,37.1
2018-08-07T05:24:43.971Z,37.1
2018-08-07T05:25:42.502Z,37.1
2018-08-07T05:26:43.330Z,37.1
2018-08-07T05:27:42.023Z,37.1
2018-08-07T05:28:46.656Z,37.4
2018-08-07T05:29:46.049Z,37.7
2018-08-07T05:30:42.608Z,37.9
2018-08-07T05:31:42.543Z,37.9
2018-08-07T05:32:49.875Z,37.9
2018-08-07T05:34:02.172Z,38
2018-08-07T05:34:56.096Z,38.1
2018-08-07T05:35:58.140Z,38.1
2018-08-07T05:36:57.444Z,38.1
2018-08-07T05:38:02.712Z,38
2018-08-07T05:39:05.157Z,38.1
2018-08-07T05:40:07.772Z,38.1
2018-08-07T05:41:16.377Z,38.2
2018-08-07T05:42:20.488Z,38.3
2018-08-07T05:43:22.152Z,38.3
2018-08-07T05:44:34.890Z,38.4
2018-08-07T05:45:28.988Z,38.3
2018-08-07T05:46:26.928Z,38.5
2018-08-07T05:47:29.405Z,38.5
2018-08-07T05:48:31.331Z,38.6
2018-08-07T05:49:35.812Z,38.6
2018-08-07T05:50:38.438Z,38.6
2018-08-07T05:51:40.277Z,38.7
2018-08-07T05:52:39.263Z,38.7
2018-08-07T05:53:40.095Z,38.7
2018-08-07T05:54:38.319Z,38.8
2018-08-07T05:55:33.474Z,38.8
2018-08-07T05:56:37.929Z,38.8
2018-08-07T05:57:41.359Z,38.8
2018-08-07T05:58:39.486Z,39
2018-08-07T05:59:45.077Z,39
2018-08-07T06:00:43.603Z,39.1
2018-08-07T06:01:57.183Z,39.2
2018-08-07T06:02:53.209Z,39.3
2018-08-07T06:03:57.044Z,39.3
2018-08-07T06:04:56.511Z,39.3
2018-08-07T06:05:58.701Z,39.3
2018-08-07T06:07:04.712Z,39.4
2018-08-07T06:08:00.529Z,39.4
2018-08-07T06:09:00.743Z,39.3
2018-08-07T06:09:58.682Z,39.4
2018-08-07T06:10:56.376Z,39.4
2018-08-07T06:12:13.778Z,39.3
2018-08-07T06:13:08.717Z,39.3
2018-08-07T06:14:09.049Z,39.4
2018-08-07T06:15:03.777Z,39.4
2018-08-07T06:16:10.933Z,39.5
2018-08-07T06:17:05.676Z,39.5
2018-08-07T06:18:09.152Z,39.5
2018-08-07T06:19:20.209Z,39.5
2018-08-07T06:20:22.374Z,39.5
2018-08-07T06:21:20.238Z,39.6
2018-08-07T06:22:24.562Z,39.5
2018-08-07T06:23:27.328Z,39.6
2018-08-07T06:24:31.316Z,39.3
2018-08-07T06:25:32.177Z,39.3
2018-08-07T06:26:26.856Z,39.4
2018-08-07T06:27:29.014Z,39.8
2018-08-07T06:28:25.339Z,39.6
2018-08-07T06:29:37.271Z,39.5
2018-08-07T06:30:32.854Z,39.4
2018-08-07T06:31:31.042Z,39.1
2018-08-07T06:32:28.714Z,38.9
2018-08-07T06:33:40.889Z,39.1
2018-08-07T06:34:39.456Z,38.6
2018-08-07T06:35:34.495Z,38.6
2018-08-07T06:36:36.685Z,38.7
2018-08-07T06:37:34.054Z,38.6
2018-08-07T06:38:32.991Z,38.4
2018-08-07T06:39:45.076Z,38.3
2018-08-07T06:40:40.038Z,38.1
2018-08-07T06:41:47.752Z,38
2018-08-07T06:42:48.341Z,38
2018-08-07T06:43:51.858Z,38
2018-08-07T06:44:51.416Z,38
2018-08-07T06:45:49.167Z,37.9
2018-08-07T06:46:44.891Z,38
2018-08-07T06:47:56.465Z,38
2018-08-07T06:48:54.338Z,37.9
2018-08-07T06:49:55.318Z,37.9
2018-08-07T06:50:53.618Z,37.6
2018-08-07T06:51:48.429Z,37.4
2018-08-07T06:52:53.866Z,37.6
2018-08-07T06:53:53.950Z,37.3
2018-08-07T06:54:50.649Z,37.2
2018-08-07T06:56:00.380Z,37.3
2018-08-07T06:56:56.463Z,37
2018-08-07T06:57:58.540Z,37.3
2018-08-07T06:58:58.635Z,37.4
2018-08-07T06:59:58.305Z,37.1
2018-08-07T07:00:56.279Z,37.3
2018-08-07T07:01:58.199Z,37.2
2018-08-07T07:02:58.294Z,37.1
2018-08-07T07:04:03.018Z,37.2
2018-08-07T07:05:03.020Z,36.9
2018-08-07T07:06:18.045Z,37
2018-08-07T07:07:13.495Z,36.9
2018-08-07T07:08:12.308Z,36.8
2018-08-07T07:09:14.778Z,36.8
2018-08-07T07:10:20.184Z,36.8
2018-08-07T07:11:18.278Z,36.8
2018-08-07T07:12:21.851Z,36.8
2018-08-07T07:13:22.769Z,36.8
2018-08-07T07:14:17.389Z,36.8
2018-08-07T07:15:18.225Z,36.8
2018-08-07T07:16:16.357Z,36.8
2018-08-07T07:17:14.232Z,36.7
2018-08-07T07:18:26.824Z,36.7
2018-08-07T07:19:25.905Z,36.7
2018-08-07T07:20:21.016Z,36.7
2018-08-07T07:21:20.148Z,36.7
2018-08-07T07:22:23.611Z,36.7
2018-08-07T07:23:21.437Z,36.7
2018-08-07T07:24:28.224Z,36.7
2018-08-07T07:25:27.474Z,36.7
2018-08-07T07:26:31.328Z,36.7
2018-08-07T07:27:26.785Z,36.7
2018-08-07T07:28:28.629Z,36.7
2018-08-07T07:29:26.700Z,36.7
2018-08-07T07:30:24.255Z,36.7
2018-08-07T07:31:26.774Z,36.7
2018-08-07T07:32:21.448Z,36.6
2018-08-07T07:33:31.726Z,36.6
2018-08-07T07:34:28.107Z,36.6
2018-08-07T07:35:31.464Z,36.6
2018-08-07T07:36:30.293Z,36.6
2018-08-07T07:37:26.920Z,36.6
2018-08-07T07:38:39.269Z,36.5
2018-08-07T07:39:47.199Z,36.4
2018-08-07T07:40:50.578Z,36.4
2018-08-07T07:41:50.884Z,36.3
2018-08-07T07:42:49.155Z,36.3
2018-08-07T07:43:49.784Z,36.3
2018-08-07T07:44:47.026Z,36.3
2018-08-07T07:45:47.906Z,36.1
2018-08-07T07:46:58.525Z,36.2
2018-08-07T07:47:57.215Z,36.2
2018-08-07T07:48:54.575Z,36.2
2018-08-07T07:49:52.629Z,36.4
2018-08-07T07:51:04.262Z,36.3
2018-08-07T07:51:55.672Z,36.2
2018-08-07T07:53:04.257Z,36.2
2018-08-07T07:54:03.562Z,36.1
2018-08-07T07:55:05.149Z,36.2
2018-08-07T07:56:06.321Z,36.2
2018-08-07T07:57:04.450Z,36.2
2018-08-07T07:58:02.689Z,36.1
2018-08-07T07:59:02.270Z,36.1
2018-08-07T08:00:02.507Z,36.1
2018-08-07T08:00:57.249Z,36
2018-08-07T08:02:12.391Z,35.9
2018-08-07T08:03:25.712Z,35.9
2018-08-07T08:04:20.757Z,35.9
2018-08-07T08:05:29.888Z,35.8
2018-08-07T08:06:25.232Z,35.8
2018-08-07T08:07:34.613Z,35.8
2018-08-07T08:08:32.786Z,35.9
2018-08-07T08:09:33.436Z,36
2018-08-07T08:10:32.875Z,36
2018-08-07T08:11:35.451Z,36.1
2018-08-07T08:12:37.769Z,36.3
2018-08-07T08:13:35.833Z,36.3
2018-08-07T08:14:30.691Z,36.3
2018-08-07T08:15:39.022Z,36.1
2018-08-07T08:16:42.328Z,36.3
2018-08-07T08:17:42.598Z,36.2
2018-08-07T08:18:42.458Z,36.2
2018-08-07T08:19:40.338Z,36.2
2018-08-07T08:20:35.806Z,36.2
2018-08-07T08:21:41.024Z,36.2
2018-08-07T08:22:55.762Z,36.1
2018-08-07T08:23:50.216Z,36.1
2018-08-07T08:24:49.933Z,36.1
2018-08-07T08:25:47.995Z,36
2018-08-07T08:26:59.731Z,35.9
2018-08-07T08:28:06.097Z,36.2
2018-08-07T08:29:06.473Z,36.2
2018-08-07T08:30:09.504Z,36.2
2018-08-07T08:31:09.062Z,36.2
2018-08-07T08:32:09.904Z,36.2
2018-08-07T08:33:23.514Z,36.2
2018-08-07T08:34:21.454Z,36.2
2018-08-07T08:35:22.492Z,36.2
2018-08-07T08:36:22.427Z,36.2
2018-08-07T08:37:22.536Z,36.2
2018-08-07T08:38:21.390Z,36.2
2018-08-07T08:39:26.993Z,36.1
2018-08-07T08:40:28.271Z,36.1
2018-08-07T08:41:32.236Z,36.1
2018-08-07T08:42:30.173Z,36.1
2018-08-07T08:43:37.065Z,36.1
2018-08-07T08:44:35.679Z,36
2018-08-07T08:45:50.537Z,35.9
2018-08-07T08:46:46.898Z,36.1
2018-08-07T08:47:45.972Z,36.1
2018-08-07T08:48:56.391Z,36.2
2018-08-07T08:49:56.920Z,36.2
2018-08-07T08:51:00.054Z,36.2
2018-08-07T08:51:56.705Z,36.3
2018-08-07T08:52:57.229Z,36.3
2018-08-07T08:53:57.312Z,36.3
2018-08-07T08:54:54.355Z,36.3
2018-08-07T08:55:57.562Z,36.2
2018-08-07T08:56:58.133Z,36.2
2018-08-07T08:58:07.012Z,36.2
2018-08-07T08:59:07.564Z,36.2
2018-08-07T09:00:18.673Z,36.3
2018-08-07T09:01:16.560Z,36.4
2018-08-07T09:02:26.221Z,36.4
2018-08-07T09:03:23.399Z,36.5
2018-08-07T09:04:20.882Z,36.4
2018-08-07T09:05:33.186Z,36.4
2018-08-07T09:06:33.490Z,36.4
2018-08-07T09:07:34.944Z,36.4
2018-08-07T09:08:40.907Z,36.4
2018-08-07T09:09:43.989Z,36.4
2018-08-07T09:10:46.322Z,36.4
2018-08-07T09:11:50.595Z,36.4
2018-08-07T09:12:48.431Z,36.4
2018-08-07T09:13:52.522Z,36.4
2018-08-07T09:14:51.826Z,36.4
2018-08-07T09:15:56.741Z,36.1
2018-08-07T09:16:55.529Z,36.4
2018-08-07T09:17:56.265Z,36.4
2018-08-07T09:19:12.480Z,36.4
2018-08-07T09:20:14.779Z,36.4
2018-08-07T09:21:12.222Z,36.4
2018-08-07T09:22:09.943Z,36.4
2018-08-07T09:23:09.271Z,36.4
2018-08-07T09:24:22.377Z,36.4
2018-08-07T09:25:21.927Z,36.4
2018-08-07T09:26:24.434Z,36.4
2018-08-07T09:27:25.525Z,36.4
2018-08-07T09:28:31.988Z,36.4
2018-08-07T09:29:33.071Z,36.4
2018-08-07T09:30:31.751Z,36.1
2018-08-07T09:31:32.315Z,36.4
2018-08-07T09:32:38.462Z,36.4
2018-08-07T09:33:34.133Z,36.4
2018-08-07T09:34:36.517Z,36.4
2018-08-07T09:35:49.444Z,36.4
2018-08-07T09:36:53.841Z,36.4
2018-08-07T09:37:52.154Z,36.4
2018-08-07T09:38:57.278Z,36.4
2018-08-07T09:39:57.154Z,36.4
2018-08-07T09:40:56.014Z,36.4
2018-08-07T09:41:55.949Z,36.4
2018-08-07T09:42:54.651Z,36.4
2018-08-07T09:43:54.133Z,36.4
2018-08-07T09:44:53.211Z,36.4
2018-08-07T09:45:54.906Z,36.2
2018-08-07T09:47:17.311Z,36.4
2018-08-07T09:48:19.138Z,36.4
2018-08-07T09:49:19.620Z,36.4
2018-08-07T09:50:31.652Z,36.3
2018-08-07T09:51:28.069Z,36.3
2018-08-07T09:52:30.012Z,36.4
2018-08-07T09:53:30.274Z,36.3
2018-08-07T09:54:32.031Z,36.3
2018-08-07T09:55:37.199Z,36.3
2018-08-07T09:56:34.613Z,36.3
2018-08-07T09:57:36.747Z,36.3
2018-08-07T09:58:33.370Z,36.3
2018-08-07T09:59:34.150Z,36.3
2018-08-07T10:00:36.224Z,36.2
2018-08-07T10:01:35.833Z,36.3
2018-08-07T10:02:30.474Z,36.3
2018-08-07T10:03:47.254Z,36.3
2018-08-07T10:04:48.194Z,36.3
2018-08-07T10:05:47.317Z,36.3
2018-08-07T10:06:55.519Z,36.3
2018-08-07T10:07:56.445Z,36.3
2018-08-07T10:08:56.039Z,36.3
2018-08-07T10:09:54.396Z,36.2
2018-08-07T10:10:58.191Z,36.3
2018-08-07T10:12:07.865Z,36.3
2018-08-07T10:13:03.732Z,36.3
2018-08-07T10:14:09.656Z,36.3
2018-08-07T10:15:22.037Z,36.2
2018-08-07T10:16:16.823Z,36.3
2018-08-07T10:17:18.234Z,36.2
2018-08-07T10:18:16.131Z,36.2
2018-08-07T10:19:11.694Z,36.2
2018-08-07T10:20:12.578Z,36.2
2018-08-07T10:21:15.687Z,36.2
2018-08-07T10:22:18.150Z,36.2
2018-08-07T10:23:14.437Z,36.2
2018-08-07T10:24:16.029Z,36.2
2018-08-07T10:25:19.821Z,36.2
2018-08-07T10:26:20.705Z,36.3
2018-08-07T10:27:15.805Z,36.5
2018-08-07T10:28:33.048Z,36.4
2018-08-07T10:29:30.072Z,36.4
2018-08-07T10:30:25.296Z,36.5
2018-08-07T10:31:26.573Z,36.5
2018-08-07T10:32:24.347Z,36.5
2018-08-07T10:33:23.089Z,36.5
2018-08-07T10:34:22.154Z,36.5
2018-08-07T10:35:21.231Z,36.5
2018-08-07T10:36:16.478Z,36.5
2018-08-07T10:37:18.310Z,36.5
2018-08-07T10:38:16.220Z,36.4
2018-08-07T10:39:13.530Z,36.4
2018-08-07T10:40:14.538Z,36.3
2018-08-07T10:41:27.902Z,36.3
2018-08-07T10:42:20.064Z,36.3
2018-08-07T10:43:22.510Z,36.2
2018-08-07T10:44:22.989Z,36.2
2018-08-07T10:45:21.718Z,36.4
2018-08-07T10:46:27.984Z,36.4
2018-08-07T10:47:28.049Z,36.4
2018-08-07T10:48:29.082Z,36.4
2018-08-07T10:49:27.896Z,36.4
2018-08-07T10:50:28.441Z,36.5
2018-08-07T10:51:32.140Z,36.5
2018-08-07T10:52:34.168Z,36.5
2018-08-07T10:53:31.753Z,36.4
2018-08-07T10:54:43.702Z,36.4
2018-08-07T10:55:39.039Z,36.4
2018-08-07T10:56:44.059Z,36.3
2018-08-07T10:57:49.969Z,36.2
2018-08-07T10:58:45.888Z,36.1
2018-08-07T10:59:47.951Z,36
2018-08-07T11:00:45.391Z,36.2
2018-08-07T11:01:46.890Z,35.8
2018-08-07T11:02:46.951Z,35.8
2018-08-07T11:03:48.236Z,35.9
2018-08-07T11:04:48.255Z,35.9
2018-08-07T11:05:50.512Z,35.9
2018-08-07T11:06:45.135Z,35.9
2018-08-07T11:08:00.966Z,35.8
2018-08-07T11:09:01.933Z,35.7
2018-08-07T11:10:00.061Z,35.7
2018-08-07T11:10:58.041Z,35.7
2018-08-07T11:12:11.788Z,35.7
2018-08-07T11:13:08.380Z,35.7
2018-08-07T11:14:11.441Z,35.7
2018-08-07T11:15:06.105Z,35.7
2018-08-07T11:16:06.593Z,35.8
2018-08-07T11:17:01.139Z,35.7
2018-08-07T11:17:58.550Z,35.7
2018-08-07T11:19:13.915Z,35.6
2018-08-07T11:20:10.211Z,35.6
2018-08-07T11:21:08.914Z,35.6
2018-08-07T11:22:08.110Z,36.1
2018-08-07T11:23:13.077Z,36.2
2018-08-07T11:24:12.690Z,36.1
2018-08-07T11:25:13.866Z,36.1
2018-08-07T11:26:17.819Z,36.1
2018-08-07T11:27:14.536Z,36.1
2018-08-07T11:28:14.381Z,36.1
2018-08-07T11:29:20.350Z,36.1
2018-08-07T11:30:18.366Z,36.1
2018-08-07T11:31:28.460Z,36
2018-08-07T11:32:24.067Z,35.9
2018-08-07T11:33:25.038Z,35.9
2018-08-07T11:34:20.988Z,35.9
2018-08-07T11:35:29.212Z,36
2018-08-07T11:36:28.423Z,35.7
2018-08-07T11:37:26.587Z,35.8
2018-08-07T11:38:26.858Z,35.7
2018-08-07T11:39:31.633Z,35.7
2018-08-07T11:40:29.860Z,35.7
2018-08-07T11:41:28.069Z,35.7
2018-08-07T11:42:26.325Z,35.7
2018-08-07T11:43:27.893Z,35.6
2018-08-07T11:44:41.577Z,36.1
2018-08-07T11:45:36.603Z,35.6
2018-08-07T11:46:34.415Z,36.1
2018-08-07T11:47:30.090Z,36.1
2018-08-07T11:48:33.821Z,36.1
2018-08-07T11:49:38.928Z,36
2018-08-07T11:50:40.194Z,36
2018-08-07T11:51:39.392Z,36
2018-08-07T11:52:42.709Z,36
2018-08-07T11:53:42.217Z,36
2018-08-07T11:54:43.929Z,36
2018-08-07T11:55:37.712Z,36
2018-08-07T11:56:36.929Z,36
2018-08-07T11:57:41.142Z,36
2018-08-07T11:58:39.830Z,35.9
2018-08-07T11:59:38.686Z,36
2018-08-07T12:00:51.526Z,36
2018-08-07T12:01:46.976Z,36.1
2018-08-07T12:02:45.960Z,36
2018-08-07T12:03:46.217Z,35.6
2018-08-07T12:04:46.558Z,35.6
2018-08-07T12:05:56.016Z,35.6
2018-08-07T12:06:57.343Z,35.6
2018-08-07T12:07:57.610Z,35.6
2018-08-07T12:09:06.784Z,35.6
2018-08-07T12:10:03.045Z,35.7
2018-08-07T12:11:17.738Z,35.8
2018-08-07T12:12:12.852Z,36
2018-08-07T12:13:11.330Z,36
2018-08-07T12:14:09.151Z,36.1
2018-08-07T12:15:10.561Z,36.1
2018-08-07T12:16:08.429Z,36.4
2018-08-07T12:17:09.042Z,36.2
2018-08-07T12:18:12.873Z,36.2
2018-08-07T12:19:07.696Z,36.2
2018-08-07T12:20:05.943Z,36.1
2018-08-07T12:21:27.054Z,36.1
2018-08-07T12:22:24.452Z,36
2018-08-07T12:23:24.456Z,35.9
2018-08-07T12:24:23.425Z,35.8
2018-08-07T12:25:31.614Z,36.2
2018-08-07T12:26:28.076Z,36.1
2018-08-07T12:27:26.458Z,36.1
2018-08-07T12:28:24.600Z,36
2018-08-07T12:29:27.031Z,36
2018-08-07T12:30:24.421Z,36
2018-08-07T12:31:23.032Z,36
2018-08-07T12:32:25.726Z,36
2018-08-07T12:33:25.034Z,35.9
2018-08-07T12:34:19.764Z,35.9
2018-08-07T12:35:32.247Z,35.9
2018-08-07T12:36:27.163Z,35.9
2018-08-07T12:37:28.244Z,35.9
2018-08-07T12:38:32.408Z,35.9
2018-08-07T12:39:30.914Z,35.9
2018-08-07T12:40:31.740Z,35.9
2018-08-07T12:41:33.906Z,35.9
2018-08-07T12:42:38.004Z,35.9
2018-08-07T12:43:41.239Z,35.8
2018-08-07T12:44:36.917Z,35.9
2018-08-07T12:45:59.471Z,35.9
2018-08-07T12:46:46.019Z,35.8
2018-08-07T12:47:41.664Z,35.8
2018-08-07T12:48:40.414Z,35.8
2018-08-07T12:49:41.854Z,35.8
2018-08-07T12:50:46.689Z,35.8
2018-08-07T12:51:44.722Z,35.8
2018-08-07T12:52:44.617Z,35.8
2018-08-07T12:53:40.058Z,35.8
2018-08-07T12:54:41.287Z,35.8
2018-08-07T12:55:40.518Z,35.8
2018-08-07T12:56:40.092Z,35.8
2018-08-07T12:57:38.405Z,35.8
2018-08-07T12:58:51.968Z,35.9
2018-08-07T12:59:48.584Z,35.9
2018-08-07T13:00:52.140Z,35.9
2018-08-07T13:01:50.213Z,35.9
2018-08-07T13:02:49.611Z,35.9
2018-08-07T13:03:52.348Z,35.9
2018-08-07T13:04:53.663Z,36
2018-08-07T13:05:53.609Z,36.1
2018-08-07T13:06:51.634Z,36.2
2018-08-07T13:08:00.787Z,36.2
2018-08-07T13:09:24.307Z,36.3
2018-08-07T13:10:16.548Z,36.4
2018-08-07T13:11:18.104Z,36.4
2018-08-07T13:12:18.350Z,36.4
2018-08-07T13:13:16.359Z,36.5
2018-08-07T13:14:13.995Z,36.5
2018-08-07T13:15:11.979Z,36.6
2018-08-07T13:16:06.817Z,36.9
2018-08-07T13:17:14.545Z,36.7
2018-08-07T13:18:11.214Z,36.7
2018-08-07T13:19:11.806Z,36.7
2018-08-07T13:20:11.759Z,36.7
2018-08-07T13:21:30.455Z,36.6
2018-08-07T13:22:22.126Z,36.6
2018-08-07T13:23:23.292Z,36.5
2018-08-07T13:24:23.671Z,36.5
2018-08-07T13:25:21.494Z,36.5
2018-08-07T13:26:27.815Z,36.5
2018-08-07T13:27:29.535Z,36.4
2018-08-07T13:28:27.448Z,36.4
2018-08-07T13:29:29.493Z,36.3
2018-08-07T13:30:28.093Z,36.2
2018-08-07T13:31:27.188Z,36.2
2018-08-07T13:32:27.589Z,36.2
2018-08-07T13:33:26.713Z,36.2
2018-08-07T13:34:31.348Z,36.1
2018-08-07T13:35:27.181Z,36.1
2018-08-07T13:36:30.206Z,36.1
2018-08-07T13:37:25.019Z,36.1
2018-08-07T13:38:37.061Z,36.1
2018-08-07T13:39:36.316Z,36.2